Aeroporto :
LOGIN :

Iscrizione | Disclaimer

   EN    FR    IT 

 










Sommario :    VFR   VFR Marginale   IFR   IFR Intensivo   IFR Molto Intensivo
Visibilità : 
Base nubi : 
>= 8 km
>= 3000ft
5 / 8 km
1000 / 3000 ft
1500m / 5 km
500 / 1000 ft
800 / 1500m
200 / 500 ft
< 800m
< 200 ft
Simboli :   Temporali  Nebbia  Neve Forte  Precipitazioni Forti  Vento > 20 kt
SIGMETs :   Varie  Temporali  Ghiacco  Turbolenza  Onda orograficha  Ceneri Vulcaniche






- Altitudine del aeroporto : 74 ft
- Codice IATA : EIN


EHEH - Eindhoven

ULTIMO METAR :
  • 290625Z AUTO 36012KT 330V040 9999 NCD 04/00 Q1028 BLU 36012KT CAVOK BECMG 03018G28KT

METARs OBSOLETI :
  • 290555Z AUTO 36012KT 330V040 9999 NCD 04/00 Q1027 BLU 36010KT CAVOK BECMG 03018G28KT
  • 290525Z AUTO 35009KT 330V030 9999 NCD 03/00 Q1027 BLU 36010KT CAVOK BECMG 03018G28KT
  • 290455Z AUTO 34008KT 310V020 9999 FEW082 03/00 Q1027 BLU 35008KT CAVOK
  • 290425Z AUTO 34007KT 310V020 9999 FEW076 03/00 Q1027 BLU 35008KT CAVOK
  • 290355Z AUTO 33007KT 290V010 9999 BKN062 BKN067 03/00 Q1027 BLU
  • 290325Z AUTO 31005KT 270V360 9999 FEW055 BKN061 OVC067 03/M00 Q1027 BLU

TAF TAF EHEH
Valido dal 29 a 06 ore il 30 a 12 ore UTC


290522Z 2906/3012 01008KT 9999 SCT030
BECMG 2906/2908 03018G28KT
PROB40
TEMPO 2909/2915 03019G32KT 4500 -SHRASN FEW020CB BKN025
BECMG 2922/3001 36005KT
BECMG 3009/3012 33010KT
TEMPO 3010/3012 35012G22KT 4000 -SHRAGS FEW012 SCT020CB BKN025



MetMap, La meteo Aeronautica in un colpo d'occhio ! - Copyright ORBIFLY Dicembre 2007 - Disclaimer

ORBIFLY MET'MAP TEAM :

Programmazione e sviluppo : Alexandra Zaïnal
Concezione : Baudouin d'Aumeries
Aiuto per la programmazione : Marc-Olivier Méhu
Supporto tecnico e logistico : Manuel Goepfert
Aiuto per la traduzione : Arnaldo La Scala

Contatto : metmap@orbifly.com




FONTI E CREDITI :

   NOAA